Time;durP1;ratioP1;P1;durP2;ratioP2;P2;SDS_P1;SDS_P2;PMS_P1;PMS_P2;Temp;Humidity;BMP_temperature;BMP_pressure;BME280_temperature;BME280_humidity;BME280_pressure;Samples;Min_cycle;Max_cycle;Signal;HPM_P1;HPM_P2
2022/05/01 00:00:58;;;;;;;0.40;0.30;;;11.60;99.90;;;-141.50;100.00;62695.63;5008771;28;25093;-67
2022/05/01 00:03:31;;;;;;;0.40;0.30;;;11.60;99.90;;;-141.50;100.00;62695.63;5006732;28;24516;-68
2022/05/01 00:06:04;;;;;;;1.20;0.50;;;11.70;99.90;;;-141.50;100.00;62695.63;5007796;28;24424;-69
2022/05/01 00:08:31;;;;;;;0.90;0.70;;;11.60;99.90;;;-141.50;100.00;62695.63;4989262;28;24783;-68
2022/05/01 00:11:00;;;;;;;0.40;0.30;;;11.60;99.90;;;-141.50;100.00;62695.63;4994106;28;24436;-67
2022/05/01 00:13:45;;;;;;;0.40;0.30;;;11.60;99.90;;;-141.50;100.00;62695.63;4992418;28;24456;-68
2022/05/01 00:16:13;;;;;;;0.50;0.50;;;11.60;99.90;;;-141.50;100.00;62695.63;5001779;28;24552;-68
2022/05/01 00:18:41;;;;;;;0.40;0.30;;;11.50;99.90;;;-141.50;100.00;62695.63;4991477;28;24861;-69
2022/05/01 00:21:08;;;;;;;0.40;0.30;;;11.50;99.90;;;-141.50;100.00;62695.63;4992342;28;24417;-69
2022/05/01 00:23:35;;;;;;;0.50;0.50;;;11.50;99.90;;;-141.50;100.00;62695.63;4992996;28;24517;-67
2022/05/01 00:26:05;;;;;;;0.40;0.40;;;11.50;99.90;;;-141.50;100.00;62695.63;5013517;28;24491;-68
2022/05/01 00:28:36;;;;;;;0.70;0.70;;;11.60;99.90;;;-141.50;100.00;62695.63;5012118;28;24594;-67
2022/05/01 00:31:07;;;;;;;0.90;0.70;;;11.60;99.90;;;-141.50;100.00;62695.63;4995153;28;24443;-68
2022/05/01 00:36:26;;;;;;;0.40;0.40;;;11.60;99.90;;;-141.50;100.00;62695.63;4996554;28;24472;-68
2022/05/01 00:39:03;;;;;;;0.40;0.30;;;11.60;99.90;;;-141.50;100.00;62695.63;5000029;28;24484;-67
2022/05/01 00:41:31;;;;;;;0.40;0.30;;;11.60;99.90;;;-141.50;100.00;62695.63;4991539;28;24519;-68
2022/05/01 00:44:03;;;;;;;0.40;0.30;;;11.60;99.90;;;-141.50;100.00;62695.63;4993219;28;24421;-68
2022/05/01 00:46:36;;;;;;;0.50;0.50;;;11.60;99.90;;;-141.50;100.00;62695.63;5002784;28;24843;-67
2022/05/01 00:49:08;;;;;;;0.80;0.80;;;11.50;99.90;;;-141.50;100.00;62695.63;4992174;28;24978;-68
2022/05/01 00:51:42;;;;;;;0.40;0.30;;;11.60;99.90;;;-141.50;100.00;62695.63;4993135;28;24508;-69
2022/05/01 00:54:10;;;;;;;0.43;0.43;;;11.60;99.90;;;-141.50;100.00;62695.63;4975369;28;24656;-68
2022/05/01 00:56:45;;;;;;;0.43;0.38;;;11.50;99.90;;;-141.50;100.00;62695.63;4994114;28;24531;-68
2022/05/01 00:59:12;;;;;;;0.40;0.30;;;11.50;99.90;;;-141.50;100.00;62695.63;4992279;28;24417;-69
2022/05/01 01:01:45;;;;;;;0.40;0.30;;;11.50;99.90;;;-141.50;100.00;62695.63;5010179;28;24536;-67
2022/05/01 01:04:13;;;;;;;0.40;0.40;;;11.60;99.90;;;-141.50;100.00;62695.63;5010639;28;25073;-66
2022/05/01 01:06:42;;;;;;;1.10;1.00;;;11.50;99.90;;;-141.50;100.00;62695.63;5005096;28;24436;-68
2022/05/01 01:09:11;;;;;;;0.43;0.38;;;11.50;99.90;;;-141.50;100.00;62695.63;4993154;28;24521;-68
2022/05/01 01:11:39;;;;;;;0.40;0.30;;;11.40;99.90;;;-141.50;100.00;62695.63;5012674;28;24433;-67
2022/05/01 01:14:07;;;;;;;0.50;0.50;;;11.40;99.90;;;-141.50;100.00;62695.63;5009916;28;25028;-67
2022/05/01 01:16:35;;;;;;;0.43;0.38;;;11.30;99.90;;;-141.50;100.00;62695.63;4990906;28;24451;-68
2022/05/01 01:19:08;;;;;;;0.40;0.30;;;11.30;99.90;;;-141.50;100.00;62695.63;4992097;28;24427;-67
2022/05/01 01:21:36;;;;;;;0.40;0.30;;;11.20;99.90;;;-141.50;100.00;62695.63;5001117;28;25050;-68
2022/05/01 01:24:09;;;;;;;0.40;0.30;;;11.20;99.90;;;-141.50;100.00;62695.63;4990249;28;24425;-68
2022/05/01 01:26:38;;;;;;;0.40;0.30;;;11.30;99.90;;;-141.50;100.00;62695.63;5005570;28;24440;-67
2022/05/01 01:31:40;;;;;;;0.40;0.40;;;11.30;99.90;;;-141.50;100.00;62695.63;5018852;23;24472;-69
2022/05/01 01:31:55;;;;;;;0.40;0.30;;;11.30;99.90;;;-141.50;100.00;62695.63;4990798;28;24425;-69
2022/05/01 01:34:28;;;;;;;0.80;0.80;;;11.30;99.90;;;-141.50;100.00;62695.63;4957621;28;25022;-69
2022/05/01 01:36:55;;;;;;;0.40;0.30;;;11.20;99.90;;;-141.50;100.00;62695.63;4972006;28;24451;-69
2022/05/01 01:39:25;;;;;;;0.40;0.32;;;11.30;99.90;;;-141.50;100.00;62695.63;4991445;28;24432;-71
2022/05/01 01:41:54;;;;;;;0.65;0.65;;;11.30;99.90;;;-141.50;100.00;62695.63;4989234;28;24966;-66
2022/05/01 01:44:23;;;;;;;0.40;0.30;;;11.30;99.90;;;-141.50;100.00;62695.63;4989967;28;24480;-69
2022/05/01 01:46:50;;;;;;;0.40;0.30;;;11.20;99.90;;;-141.50;100.00;62695.63;4972321;28;24547;-69
2022/05/01 01:49:17;;;;;;;0.40;0.35;;;11.30;99.90;;;-141.50;100.00;62695.63;4990255;28;24860;-69
2022/05/01 01:51:44;;;;;;;0.60;0.60;;;11.20;99.90;;;-141.50;100.00;62695.63;4990276;28;25077;-69
2022/05/01 01:54:11;;;;;;;0.40;0.40;;;11.20;99.90;;;-141.50;100.00;62695.63;4991071;28;24449;-68
2022/05/01 01:56:38;;;;;;;0.40;0.30;;;11.20;99.90;;;-141.50;100.00;62695.63;4989698;28;24476;-69
2022/05/01 01:59:05;;;;;;;0.40;0.30;;;11.30;99.90;;;-141.50;100.00;62695.63;4989990;28;24974;-69
2022/05/01 02:01:33;;;;;;;0.40;0.30;;;11.40;99.90;;;-141.50;100.00;62695.63;4989031;28;24582;-71
2022/05/01 02:04:00;;;;;;;0.47;0.35;;;11.30;99.90;;;-141.50;100.00;62695.63;4987982;28;24960;-71
2022/05/01 02:06:27;;;;;;;0.50;0.50;;;11.30;99.90;;;-141.50;100.00;62695.63;4990335;28;24509;-69
2022/05/01 02:08:54;;;;;;;0.40;0.30;;;11.30;99.90;;;-141.50;100.00;62695.63;4990278;28;24421;-69
2022/05/01 02:11:21;;;;;;;0.50;0.50;;;11.30;99.90;;;-141.50;100.00;62695.63;4989323;28;24903;-69
2022/05/01 02:13:48;;;;;;;0.40;0.30;;;11.30;99.90;;;-141.50;100.00;62695.63;4990868;28;24517;-69
2022/05/01 02:16:17;;;;;;;0.40;0.30;;;11.20;99.90;;;-141.50;100.00;62695.63;4991103;28;24459;-69
2022/05/01 02:18:44;;;;;;;0.40;0.30;;;11.20;99.90;;;-141.50;100.00;62695.63;4991549;28;24529;-69
2022/05/01 02:23:57;;;;;;;0.63;0.52;;;11.30;99.90;;;-141.50;100.00;62695.63;4984321;28;24627;-68
2022/05/01 02:26:24;;;;;;;0.40;0.40;;;11.30;99.90;;;-141.50;100.00;62695.63;4970547;28;24436;-69
2022/05/01 02:28:51;;;;;;;0.40;0.30;;;11.30;99.90;;;-141.50;100.00;62695.63;4989110;28;24448;-71
2022/05/01 02:31:18;;;;;;;0.40;0.30;;;11.10;99.90;;;-141.50;100.00;62695.63;4988297;28;24475;-69
2022/05/01 02:33:45;;;;;;;0.30;0.30;;;11.20;99.90;;;-141.50;100.00;62695.63;4987177;28;24449;-69
2022/05/01 02:36:12;;;;;;;0.40;0.30;;;11.20;99.90;;;-141.50;100.00;62695.63;4990150;28;24449;-67
2022/05/01 02:38:39;;;;;;;0.40;0.30;;;11.20;99.90;;;-141.50;100.00;62695.63;4990433;28;24871;-70
2022/05/01 02:41:06;;;;;;;0.40;0.30;;;11.20;99.90;;;-141.50;100.00;62695.63;4989602;28;24511;-69
2022/05/01 02:43:36;;;;;;;0.40;0.30;;;11.10;99.90;;;-141.50;100.00;62695.63;4987449;28;24441;-70
2022/05/01 02:46:03;;;;;;;0.40;0.30;;;11.10;99.90;;;-141.50;100.00;62695.63;4971778;28;24499;-69
2022/05/01 02:48:30;;;;;;;0.40;0.30;;;11.00;99.90;;;-141.50;100.00;62695.63;4990096;28;24548;-69
2022/05/01 02:50:57;;;;;;;0.40;0.30;;;11.00;99.90;;;-141.50;100.00;62695.63;4989825;28;24417;-69
2022/05/01 02:53:24;;;;;;;0.40;0.30;;;11.00;99.90;;;-141.50;100.00;62695.63;4988465;28;24436;-68
2022/05/01 02:55:51;;;;;;;0.40;0.30;;;11.00;99.90;;;-141.50;100.00;62695.63;4988962;28;25069;-69
2022/05/01 02:58:17;;;;;;;0.40;0.30;;;11.10;99.90;;;-141.50;100.00;62695.63;4990150;28;25043;-69
2022/05/01 03:00:45;;;;;;;0.30;0.30;;;11.00;99.90;;;-141.50;100.00;62695.63;4988858;28;24598;-69
2022/05/01 03:03:12;;;;;;;1.10;1.00;;;10.90;99.90;;;-141.50;100.00;62695.63;4988120;28;24429;-70
2022/05/01 03:05:39;;;;;;;0.40;0.30;;;11.00;99.90;;;-141.50;100.00;62695.63;4985791;28;24504;-69
2022/05/01 03:08:06;;;;;;;0.30;0.30;;;11.00;99.90;;;-141.50;100.00;62695.63;4981146;28;24516;-69
2022/05/01 03:10:33;;;;;;;0.70;0.70;;;10.90;99.90;;;-141.50;100.00;62695.63;4989024;28;25161;-69
2022/05/01 03:13:00;;;;;;;0.30;0.30;;;10.90;99.90;;;-141.50;100.00;62695.63;4990474;28;24431;-69
2022/05/01 03:15:27;;;;;;;0.30;0.30;;;10.90;99.90;;;-141.50;100.00;62695.63;4987844;28;24569;-69
2022/05/01 03:23:24;;;;;;;0.30;0.30;;;11.00;99.90;;;-141.50;100.00;62695.63;4990761;28;24436;-69
2022/05/01 03:25:51;;;;;;;0.35;0.30;;;11.00;99.90;;;-141.50;100.00;62695.63;4988770;28;24508;-69
2022/05/01 03:28:18;;;;;;;0.60;0.60;;;11.00;99.90;;;-141.50;100.00;62695.63;4989219;28;24500;-69
2022/05/01 03:30:45;;;;;;;0.40;0.40;;;11.00;99.90;;;-141.50;100.00;62695.63;4984006;28;24457;-69
2022/05/01 03:33:12;;;;;;;0.30;0.30;;;11.00;99.90;;;-141.50;100.00;62695.63;4978183;28;24605;-71
2022/05/01 03:35:39;;;;;;;0.30;0.30;;;11.10;99.90;;;-141.50;100.00;62695.63;4987535;28;24464;-69
2022/05/01 03:38:07;;;;;;;0.30;0.30;;;11.10;99.90;;;-141.50;100.00;62695.63;4989098;28;24990;-69
2022/05/01 03:40:35;;;;;;;3.50;0.70;;;11.10;99.90;;;-141.50;100.00;62695.63;4987701;28;25166;-69
2022/05/01 03:43:03;;;;;;;0.40;0.30;;;11.10;99.90;;;-141.50;100.00;62695.63;4988287;28;24452;-69
2022/05/01 03:45:31;;;;;;;0.40;0.30;;;11.10;99.90;;;-141.50;100.00;62695.63;4989325;28;24453;-71
2022/05/01 03:47:58;;;;;;;0.47;0.47;;;11.10;99.90;;;-141.50;100.00;62695.63;4992871;28;24417;-69
2022/05/01 03:50:25;;;;;;;0.30;0.30;;;11.00;99.90;;;-141.50;100.00;62695.63;4993191;28;24453;-68
2022/05/01 03:52:52;;;;;;;0.30;0.30;;;11.00;99.90;;;-141.50;100.00;62695.63;4992858;28;24969;-69
2022/05/01 03:55:19;;;;;;;1.20;0.80;;;11.00;99.90;;;-141.50;100.00;62695.63;4992106;28;24548;-69
2022/05/01 03:57:46;;;;;;;0.30;0.30;;;11.10;99.90;;;-141.50;100.00;62695.63;4994119;28;24961;-69
2022/05/01 04:00:18;;;;;;;1.50;1.10;;;11.00;99.90;;;-141.50;100.00;62695.63;4990369;28;24642;-66
2022/05/01 04:02:46;;;;;;;0.60;0.60;;;11.10;99.90;;;-141.50;100.00;62695.63;4992245;28;24419;-69
2022/05/01 04:05:15;;;;;;;0.30;0.30;;;11.10;99.90;;;-141.50;100.00;62695.63;4990552;28;24998;-69
2022/05/01 04:07:42;;;;;;;0.40;0.30;;;11.10;99.90;;;-141.50;100.00;62695.63;4991732;28;24445;-69
2022/05/01 04:10:11;;;;;;;0.40;0.30;;;11.00;99.90;;;-141.50;100.00;62695.63;4992534;28;24421;-69
2022/05/01 04:12:47;;;;;;;0.30;0.30;;;11.00;99.90;;;-141.50;100.00;62695.63;4991758;28;24540;-68
2022/05/01 04:15:15;;;;;;;0.32;0.32;;;11.00;99.90;;;-141.50;100.00;62695.63;4992321;28;24452;-68
2022/05/01 04:17:43;;;;;;;0.40;0.30;;;11.00;99.90;;;-141.50;100.00;62695.63;4991358;28;24480;-69
2022/05/01 04:20:16;;;;;;;0.40;0.30;;;11.00;99.90;;;-141.50;100.00;62695.63;4975144;28;24423;-69
2022/05/01 04:22:47;;;;;;;0.88;0.63;;;11.00;99.90;;;-141.50;100.00;62695.63;4989371;28;24947;-69
2022/05/01 04:25:26;;;;;;;0.30;0.30;;;11.00;99.90;;;-141.50;100.00;62695.63;4991855;28;24524;-69
2022/05/01 04:28:00;;;;;;;0.30;0.30;;;11.00;99.90;;;-141.50;100.00;62695.63;4990930;28;24858;-69
2022/05/01 04:30:29;;;;;;;0.40;0.30;;;11.00;99.90;;;-141.50;100.00;62695.63;4989599;28;24435;-69
2022/05/01 04:32:59;;;;;;;0.47;0.47;;;11.00;99.90;;;-141.50;100.00;62695.63;4986883;28;24456;-69
2022/05/01 04:35:29;;;;;;;0.40;0.30;;;11.00;99.90;;;-141.50;100.00;62695.63;4991619;28;24551;-70
2022/05/01 04:38:07;;;;;;;0.40;0.30;;;11.10;99.90;;;-141.50;100.00;62695.63;4990957;28;24459;-70
2022/05/01 04:40:38;;;;;;;1.90;0.50;;;11.00;99.90;;;-141.50;100.00;62695.63;4974693;28;24500;-69
2022/05/01 04:43:09;;;;;;;0.30;0.30;;;11.10;99.90;;;-141.50;100.00;62695.63;4991009;28;24445;-68
2022/05/01 04:45:42;;;;;;;0.30;0.30;;;11.20;99.90;;;-141.50;100.00;62695.63;4991824;28;25032;-71
2022/05/01 04:48:11;;;;;;;0.30;0.30;;;11.10;99.90;;;-141.50;100.00;62695.63;4990957;28;24471;-69
2022/05/01 04:50:40;;;;;;;0.30;0.30;;;11.00;99.90;;;-141.50;100.00;62695.63;4991950;28;24463;-70
2022/05/01 04:53:10;;;;;;;0.30;0.30;;;11.10;99.90;;;-141.50;100.00;62695.63;4990590;28;24472;-69
2022/05/01 04:55:43;;;;;;;0.40;0.40;;;11.10;99.90;;;-141.50;100.00;62695.63;4990391;28;24524;-70
2022/05/01 04:58:11;;;;;;;0.40;0.30;;;11.00;99.90;;;-141.50;100.00;62695.63;4989347;28;24970;-70
2022/05/01 05:00:38;;;;;;;0.30;0.30;;;11.00;99.90;;;-141.50;100.00;62695.63;4983232;28;24884;-70
2022/05/01 05:03:06;;;;;;;0.30;0.30;;;11.00;99.90;;;-141.50;100.00;62695.63;4991397;28;24758;-68
2022/05/01 05:05:37;;;;;;;0.30;0.30;;;11.00;99.90;;;-141.50;100.00;62695.63;4990441;28;25005;-70
2022/05/01 05:10:53;;;;;;;1.10;1.00;;;11.10;99.90;;;-141.50;100.00;62695.63;4973174;28;24469;-68
2022/05/01 05:13:26;;;;;;;0.50;0.50;;;11.10;99.90;;;-141.50;100.00;62695.63;4977607;28;24445;-72
2022/05/01 05:15:58;;;;;;;0.40;0.30;;;11.20;99.90;;;-141.50;100.00;62695.63;4986532;28;24769;-70
2022/05/01 05:18:29;;;;;;;0.30;0.30;;;11.20;99.90;;;-141.50;100.00;62695.63;4978756;28;24528;-70
2022/05/01 05:20:56;;;;;;;0.40;0.40;;;11.20;99.90;;;-141.50;100.00;62695.63;4990260;28;24528;-70
2022/05/01 05:23:23;;;;;;;1.60;1.10;;;11.20;99.90;;;-141.50;100.00;62695.63;4989490;28;24528;-67
2022/05/01 05:25:50;;;;;;;0.30;0.30;;;11.30;99.90;;;-141.50;100.00;62695.63;4989657;28;24884;-71
2022/05/01 05:28:18;;;;;;;0.40;0.30;;;11.40;99.90;;;-141.50;100.00;62695.63;4989049;28;24444;-70
2022/05/01 05:30:47;;;;;;;0.40;0.30;;;11.50;99.90;;;-141.50;100.00;62695.63;4991283;28;24433;-70
2022/05/01 05:33:15;;;;;;;0.40;0.40;;;11.50;99.90;;;-141.50;100.00;62695.63;4991410;28;24449;-69
2022/05/01 05:35:42;;;;;;;0.40;0.30;;;11.60;99.90;;;-141.50;100.00;62695.63;4989765;28;24816;-69
2022/05/01 05:38:09;;;;;;;0.40;0.30;;;11.60;99.90;;;-141.50;100.00;62695.63;4976180;28;24456;-70
2022/05/01 05:40:36;;;;;;;0.80;0.80;;;11.70;99.90;;;-141.50;100.00;62695.63;4971578;28;24439;-70
2022/05/01 05:43:03;;;;;;;0.70;0.70;;;11.70;99.90;;;-141.50;100.00;62695.63;4979161;28;25002;-70
2022/05/01 05:45:30;;;;;;;0.60;0.60;;;11.60;99.90;;;-141.50;100.00;62695.63;4973279;28;25001;-69
2022/05/01 05:47:57;;;;;;;0.40;0.30;;;11.70;99.90;;;-141.50;100.00;62695.63;4990061;28;24517;-72
2022/05/01 05:50:24;;;;;;;0.40;0.30;;;11.70;99.90;;;-141.50;100.00;62695.63;4989396;28;24992;-72
2022/05/01 05:52:50;;;;;;;0.40;0.30;;;11.60;99.90;;;-141.50;100.00;62695.63;4990008;28;24440;-69
2022/05/01 05:55:17;;;;;;;0.40;0.40;;;11.60;99.90;;;-141.50;100.00;62695.63;4988715;28;24421;-69
2022/05/01 05:57:45;;;;;;;0.40;0.30;;;11.70;99.90;;;-141.50;100.00;62695.63;4985830;28;24903;-69
2022/05/01 06:00:13;;;;;;;0.40;0.30;;;11.80;99.90;;;-141.50;100.00;62695.63;4971591;28;24451;-66
2022/05/01 06:02:41;;;;;;;0.50;0.40;;;11.70;99.90;;;-141.50;100.00;62695.63;4985473;28;24596;-68
2022/05/01 06:05:08;;;;;;;0.40;0.40;;;11.80;99.90;;;-141.50;100.00;62695.63;4970566;28;24440;-69
2022/05/01 06:07:35;;;;;;;1.90;1.10;;;11.90;99.90;;;-141.50;100.00;62695.63;4979163;28;24452;-69
2022/05/01 06:10:03;;;;;;;0.40;0.30;;;12.00;99.90;;;-141.50;100.00;62695.63;4978978;28;24840;-69
2022/05/01 06:12:30;;;;;;;0.40;0.32;;;12.00;99.90;;;-141.50;100.00;62695.63;4973335;28;24544;-69
2022/05/01 06:14:57;;;;;;;0.80;0.80;;;12.10;99.90;;;-141.50;100.00;62695.63;4989270;28;24445;-65
2022/05/01 06:17:24;;;;;;;0.40;0.40;;;12.20;99.90;;;-141.50;100.00;62695.63;4989340;28;24463;-70
2022/05/01 06:19:50;;;;;;;0.40;0.35;;;12.30;99.90;;;-141.50;100.00;62695.63;4956202;28;24455;-67
2022/05/01 06:22:17;;;;;;;0.47;0.47;;;12.40;99.90;;;-141.50;100.00;62695.63;4988362;28;24427;-72
2022/05/01 06:24:44;;;;;;;0.60;0.60;;;12.60;99.90;;;-141.50;100.00;62695.63;4960963;28;24426;-70
2022/05/01 06:27:14;;;;;;;0.40;0.30;;;12.70;99.90;;;-141.50;100.00;62695.63;4953845;28;24602;-69
2022/05/01 06:29:41;;;;;;;0.40;0.30;;;12.60;99.90;;;-141.50;100.00;62695.63;4988159;28;24516;-70
2022/05/01 06:32:08;;;;;;;0.40;0.30;;;12.60;99.90;;;-141.50;100.00;62695.63;4972871;28;24794;-70
2022/05/01 06:34:36;;;;;;;0.40;0.30;;;12.70;99.90;;;-141.50;100.00;62695.63;4986726;28;24441;-70
2022/05/01 06:37:04;;;;;;;0.85;0.47;;;12.80;99.90;;;-141.50;100.00;62695.63;4987300;28;25096;-70
2022/05/01 06:39:31;;;;;;;0.40;0.35;;;12.90;99.90;;;-141.50;100.00;62695.63;4986658;28;24460;-68
2022/05/01 06:42:01;;;;;;;0.90;0.90;;;12.80;99.90;;;-141.50;100.00;62695.63;4989271;28;24425;-70
2022/05/01 06:44:28;;;;;;;0.40;0.30;;;12.80;99.90;;;-141.50;100.00;62695.63;4988465;28;24848;-73
2022/05/01 06:46:55;;;;;;;0.40;0.30;;;12.80;99.90;;;-141.50;100.00;62695.63;4990232;28;24429;-70
2022/05/01 06:49:22;;;;;;;0.40;0.40;;;13.00;99.90;;;-141.50;100.00;62695.63;4988855;28;24892;-71
2022/05/01 06:51:49;;;;;;;0.50;0.50;;;13.10;99.90;;;-141.50;100.00;62695.63;4987440;28;24425;-67
2022/05/01 06:54:16;;;;;;;0.40;0.30;;;13.20;99.90;;;-141.50;100.00;62695.63;4976644;28;24548;-69
2022/05/01 06:56:44;;;;;;;0.40;0.30;;;13.30;99.90;;;-141.50;100.00;62695.63;4982646;28;24499;-70
2022/05/01 06:59:11;;;;;;;0.40;0.30;;;13.40;99.90;;;-141.50;100.00;62695.63;4989571;28;24421;-71
2022/05/01 07:01:38;;;;;;;0.50;0.50;;;13.70;99.90;;;-141.50;100.00;62695.63;4985958;28;24444;-69
2022/05/01 07:04:05;;;;;;;0.40;0.30;;;14.10;99.90;;;-141.50;100.00;62695.63;4973225;28;24557;-70
2022/05/01 07:06:32;;;;;;;0.40;0.40;;;14.50;99.90;;;-141.50;100.00;62695.63;4976573;28;24480;-76
2022/05/01 07:08:59;;;;;;;0.80;0.70;;;14.80;99.90;;;-141.50;100.00;62695.63;4983357;28;24484;-70
2022/05/01 07:11:26;;;;;;;0.90;0.60;;;15.00;99.90;;;-141.50;100.00;62695.63;4989144;28;24440;-69
2022/05/01 07:13:53;;;;;;;0.40;0.30;;;15.20;99.90;;;-141.50;100.00;62695.63;4972141;28;24435;-72
2022/05/01 07:16:22;;;;;;;0.50;0.50;;;15.30;99.90;;;-141.50;100.00;62695.63;4988363;28;24898;-69
2022/05/01 07:18:49;;;;;;;0.40;0.30;;;15.40;99.90;;;-141.50;100.00;62695.63;4987343;28;24967;-69
2022/05/01 07:21:17;;;;;;;0.30;0.30;;;15.30;99.90;;;-141.50;100.00;62695.63;4990545;28;20204;-71
2022/05/01 07:23:44;;;;;;;0.30;0.30;;;15.10;99.90;;;-141.50;100.00;62695.63;4985048;28;20629;-68
2022/05/01 07:26:12;;;;;;;0.40;0.37;;;15.20;99.90;;;-141.50;100.00;62695.63;4971412;28;20619;-70
2022/05/01 07:28:39;;;;;;;0.30;0.30;;;15.10;99.90;;;-141.50;100.00;62695.63;4979208;28;20665;-69
2022/05/01 07:31:06;;;;;;;0.30;0.30;;;15.00;99.90;;;-141.50;100.00;62695.63;4986897;28;21238;-68
2022/05/01 07:33:34;;;;;;;1.07;1.07;;;15.10;99.90;;;-141.50;100.00;62695.63;4979728;28;21063;-68
2022/05/01 07:36:01;;;;;;;0.30;0.20;;;15.10;99.90;;;-141.50;100.00;62695.63;4967551;28;20667;-68
2022/05/01 07:38:28;;;;;;;0.30;0.30;;;15.50;99.90;;;-141.50;100.00;62695.63;4983268;28;20654;-71
2022/05/01 07:40:54;;;;;;;0.30;0.30;;;15.70;99.90;;;-141.50;100.00;62695.63;4984749;28;20615;-71
2022/05/01 07:43:21;;;;;;;0.30;0.30;;;15.90;99.90;;;-141.50;100.00;62695.63;4986839;28;20638;-71
2022/05/01 07:45:48;;;;;;;0.30;0.30;;;16.10;99.90;;;-141.50;100.00;62695.63;4971937;28;20622;-71
2022/05/01 07:48:15;;;;;;;0.30;0.30;;;16.10;99.90;;;-141.50;100.00;62695.63;4971974;28;20654;-69
2022/05/01 07:50:42;;;;;;;0.30;0.23;;;16.20;99.90;;;-141.50;100.00;62695.63;4990226;28;20637;-71
2022/05/01 07:53:09;;;;;;;0.30;0.20;;;16.20;99.90;;;-141.50;100.00;62695.63;4988848;28;21091;-71
2022/05/01 07:55:36;;;;;;;0.30;0.20;;;16.30;99.90;;;-141.50;100.00;62695.63;4977783;28;20646;-71
2022/05/01 07:58:03;;;;;;;0.30;0.20;;;15.80;99.90;;;-141.50;100.00;62695.63;4971507;28;21265;-69
2022/05/01 08:00:30;;;;;;;1.20;1.20;;;15.70;99.90;;;-141.50;100.00;62695.63;4990283;28;20609;-70
2022/05/01 08:05:42;;;;;;;0.30;0.30;;;15.50;99.90;;;-141.50;100.00;62695.63;4989476;28;20750;-70
2022/05/01 08:08:09;;;;;;;0.30;0.30;;;16.10;99.90;;;-141.50;100.00;62695.63;4981836;28;20663;-70
2022/05/01 08:10:36;;;;;;;0.30;0.30;;;16.80;99.90;;;-141.50;100.00;62695.63;4988706;28;20634;-70
2022/05/01 08:13:03;;;;;;;0.30;0.30;;;16.70;99.90;;;-141.50;100.00;62695.63;4989607;28;20622;-70
2022/05/01 08:15:30;;;;;;;0.30;0.20;;;16.50;99.90;;;-141.50;100.00;62695.63;4989226;28;20641;-67
2022/05/01 08:21:05;;;;;;;0.30;0.30;;;16.60;99.90;;;-141.50;100.00;62695.63;4983858;28;21045;-70
2022/05/01 08:23:30;;;;;;;0.80;0.80;;;18.00;99.90;;;-141.50;100.00;62695.63;4986299;28;20638;-69
2022/05/01 08:26:04;;;;;;;0.30;0.30;;;19.20;98.20;;;-141.50;100.00;62695.63;4989146;28;20610;-68
2022/05/01 08:28:32;;;;;;;0.30;0.30;;;19.30;96.40;;;-141.50;100.00;62695.63;4986945;28;20662;-68
2022/05/01 08:31:00;;;;;;;0.30;0.30;;;19.50;95.80;;;-141.50;100.00;62695.63;4990231;28;20835;-69
2022/05/01 08:33:28;;;;;;;0.30;0.30;;;20.30;94.40;;;-141.50;100.00;62695.63;4988139;28;20636;-68
2022/05/01 08:35:55;;;;;;;0.30;0.30;;;21.50;90.90;;;-141.50;100.00;62695.63;4983679;28;20733;-67
2022/05/01 08:38:22;;;;;;;0.30;0.30;;;22.10;87.60;;;-141.50;100.00;62695.63;4985331;28;21099;-68
2022/05/01 08:40:52;;;;;;;0.30;0.30;;;22.60;84.10;;;-141.50;100.00;62695.63;4973324;28;20611;-68
2022/05/01 08:43:21;;;;;;;0.30;0.30;;;24.10;78.50;;;-141.50;100.00;62695.63;4982698;28;20641;-69
2022/05/01 08:46:22;;;;;;;0.30;0.30;;;26.60;67.90;;;-141.50;100.00;62695.63;4993217;28;20629;-68
2022/05/01 08:49:04;;;;;;;0.30;0.30;;;28.40;60.20;;;-141.50;100.00;62695.63;4991871;28;20661;-65
2022/05/01 08:51:40;;;;;;;0.30;0.30;;;28.80;55.80;;;-141.50;100.00;62695.63;4993415;28;20713;-68
2022/05/01 08:54:10;;;;;;;0.30;0.30;;;28.10;55.70;;;-141.50;100.00;62695.63;4991763;28;20637;-71
2022/05/01 08:56:43;;;;;;;1.27;0.90;;;27.60;56.20;;;-141.50;100.00;62695.63;4991170;28;21056;-68
2022/05/01 08:59:12;;;;;;;0.30;0.30;;;28.60;55.40;;;-141.50;100.00;62695.63;4991898;28;20970;-69
2022/05/01 09:01:42;;;;;;;0.30;0.30;;;28.90;53.60;;;-141.50;100.00;62695.63;4992408;28;20626;-69
2022/05/01 09:04:12;;;;;;;0.30;0.30;;;29.40;52.90;;;-141.50;100.00;62695.63;4975198;28;20622;-69
2022/05/01 09:06:43;;;;;;;0.30;0.30;;;29.50;52.60;;;-141.50;100.00;62695.63;4991286;28;20708;-69
2022/05/01 09:09:21;;;;;;;0.30;0.30;;;29.40;52.10;;;-141.50;100.00;62695.63;4991076;28;20653;-69
2022/05/01 09:14:38;;;;;;;0.30;0.30;;;27.70;53.20;;;-141.50;100.00;62695.63;4990925;28;20730;-65
2022/05/01 09:17:21;;;;;;;0.30;0.30;;;26.00;56.00;;;-141.50;100.00;62695.63;4992481;28;20646;-69
2022/05/01 09:20:04;;;;;;;0.30;0.30;;;23.80;58.70;;;-141.50;100.00;62695.63;4989989;28;20642;-67
2022/05/01 09:22:54;;;;;;;0.30;0.30;;;22.30;63.10;;;-141.50;100.00;62695.63;4993524;28;21271;-70
2022/05/01 09:25:23;;;;;;;0.30;0.30;;;21.40;66.70;;;-141.50;100.00;62695.63;4990143;28;20630;-69
2022/05/01 09:27:57;;;;;;;0.30;0.30;;;21.00;68.50;;;-141.50;100.00;62695.63;4990946;28;21238;-69
2022/05/01 09:30:33;;;;;;;0.30;0.30;;;20.70;70.50;;;-141.50;100.00;62695.63;4991829;28;20654;-69
2022/05/01 09:33:02;;;;;;;0.57;0.57;;;20.50;72.10;;;-141.50;100.00;62695.63;4975735;28;20625;-69
2022/05/01 09:35:36;;;;;;;0.30;0.30;;;20.80;72.70;;;-141.50;100.00;62695.63;4990918;28;20991;-69
2022/05/01 09:38:23;;;;;;;0.30;0.30;;;20.90;72.90;;;-141.50;100.00;62695.63;4977338;28;20658;-67
2022/05/01 09:41:03;;;;;;;0.30;0.30;;;20.90;73.60;;;-141.50;100.00;62695.63;4986175;28;21012;-66
2022/05/01 09:43:42;;;;;;;0.30;0.30;;;20.80;74.40;;;-141.50;100.00;62695.63;4989527;28;20652;-69
2022/05/01 09:46:22;;;;;;;0.30;0.30;;;20.80;75.30;;;-141.50;100.00;62695.63;4990457;28;20626;-69
2022/05/01 09:49:06;;;;;;;0.30;0.30;;;22.00;73.30;;;-141.50;100.00;62695.63;4973862;28;20642;-67
2022/05/01 09:51:38;;;;;;;0.30;0.30;;;22.30;72.00;;;-141.50;100.00;62695.63;4990999;28;21029;-67
2022/05/01 09:54:06;;;;;;;0.87;0.87;;;22.00;72.40;;;-141.50;100.00;62695.63;4990292;28;20638;-69
2022/05/01 09:57:00;;;;;;;0.40;0.40;;;21.80;73.50;;;-141.50;100.00;62695.63;4990476;28;20733;-69
2022/05/01 09:59:29;;;;;;;0.30;0.30;;;21.40;74.10;;;-141.50;100.00;62695.63;4987729;28;20709;-70
2022/05/01 10:02:06;;;;;;;0.30;0.30;;;21.10;76.00;;;-141.50;100.00;62695.63;4961705;28;20636;-69
2022/05/01 10:04:36;;;;;;;0.30;0.30;;;21.00;76.30;;;-141.50;100.00;62695.63;4968491;28;20714;-69
2022/05/01 10:07:05;;;;;;;0.30;0.30;;;20.80;77.00;;;-141.50;100.00;62695.63;4985955;28;20678;-69
2022/05/01 10:09:35;;;;;;;0.30;0.30;;;20.60;78.30;;;-141.50;100.00;62695.63;4981732;28;20761;-67
2022/05/01 10:12:07;;;;;;;0.30;0.30;;;20.40;79.70;;;-141.50;100.00;62695.63;4991763;28;21067;-65
2022/05/01 10:14:35;;;;;;;0.30;0.30;;;20.20;81.30;;;-141.50;100.00;62695.63;4988860;28;20638;-68
2022/05/01 10:17:03;;;;;;;0.40;0.40;;;19.90;83.20;;;-141.50;100.00;62695.63;4982207;28;20694;-70
2022/05/01 10:19:33;;;;;;;1.10;0.83;;;19.70;84.80;;;-141.50;100.00;62695.63;4989754;28;20642;-68
2022/05/01 10:22:00;;;;;;;0.30;0.30;;;19.60;85.60;;;-141.50;100.00;62695.63;4990257;28;20744;-69
2022/05/01 10:24:28;;;;;;;3.03;1.33;;;19.30;86.20;;;-141.50;100.00;62695.63;4990129;28;20725;-69
2022/05/01 10:26:58;;;;;;;0.30;0.30;;;19.00;89.20;;;-141.50;100.00;62695.63;4987463;28;20647;-69
2022/05/01 10:33:05;;;;;;;0.40;0.40;;;18.80;91.40;;;-141.50;100.00;62695.63;4992182;28;20650;-69
2022/05/01 10:36:05;;;;;;;0.30;0.30;;;18.60;92.80;;;-141.50;100.00;62695.63;4971592;28;20632;-69